createdAt,value
2023-04-29T00:00:39.982Z,11.60
2023-04-29T00:03:44.777Z,11.70
2023-04-29T00:06:47.988Z,11.70
2023-04-29T00:09:51.285Z,11.70
2023-04-29T00:12:54.530Z,11.70
2023-04-29T00:15:57.597Z,11.70
2023-04-29T00:19:02.211Z,11.70
2023-04-29T00:22:05.280Z,11.70
2023-04-29T00:25:09.992Z,11.60
2023-04-29T00:28:13.178Z,11.60
2023-04-29T00:31:17.335Z,11.60
2023-04-29T00:34:21.786Z,11.60
2023-04-29T00:37:24.878Z,11.60
2023-04-29T00:40:29.313Z,11.60
2023-04-29T00:43:32.944Z,11.60
2023-04-29T00:46:36.187Z,11.50
2023-04-29T00:49:41.466Z,11.50
2023-04-29T00:52:45.931Z,11.40
2023-04-29T00:55:51.525Z,11.50
2023-04-29T00:58:58.517Z,11.40
2023-04-29T01:02:03.210Z,11.40
2023-04-29T01:05:08.060Z,11.50
2023-04-29T01:08:24.038Z,11.50
2023-04-29T01:11:35.953Z,11.50
2023-04-29T01:14:43.942Z,11.50
2023-04-29T01:17:57.339Z,11.40
2023-04-29T01:21:01.990Z,11.40
2023-04-29T01:24:06.862Z,11.40
2023-04-29T01:27:23.524Z,11.30
2023-04-29T01:30:39.798Z,11.30
2023-04-29T01:33:59.691Z,11.10
2023-04-29T01:37:11.353Z,11.10
2023-04-29T01:40:20.820Z,11.10
2023-04-29T01:43:26.129Z,11.10
2023-04-29T01:46:29.994Z,11.00
2023-04-29T01:49:37.627Z,11.00
2023-04-29T01:52:43.737Z,10.90
2023-04-29T01:55:49.012Z,10.90
2023-04-29T01:58:52.109Z,10.90
2023-04-29T02:01:56.641Z,10.90
2023-04-29T02:04:59.796Z,10.90
2023-04-29T02:08:03.202Z,10.90
2023-04-29T02:11:07.927Z,10.80
2023-04-29T02:14:12.588Z,10.80
2023-04-29T02:17:15.713Z,10.80
2023-04-29T02:20:19.110Z,10.70
2023-04-29T02:23:22.221Z,10.70
2023-04-29T02:26:27.079Z,10.70
2023-04-29T02:29:31.800Z,10.70
2023-04-29T02:32:35.746Z,10.70
2023-04-29T02:35:38.821Z,10.70
2023-04-29T02:38:41.912Z,10.70
2023-04-29T02:41:46.319Z,10.70
2023-04-29T02:44:49.702Z,10.60
2023-04-29T02:47:52.779Z,10.60
2023-04-29T02:50:55.794Z,10.60
2023-04-29T02:53:59.038Z,10.70
2023-04-29T02:57:03.552Z,10.60
2023-04-29T03:00:08.924Z,10.60
2023-04-29T03:03:12.271Z,10.70
2023-04-29T03:06:15.991Z,10.60
2023-04-29T03:09:19.029Z,10.50
2023-04-29T03:12:23.916Z,10.50
2023-04-29T03:15:27.255Z,10.50
2023-04-29T03:18:30.362Z,10.50
2023-04-29T03:21:33.742Z,10.50
2023-04-29T03:24:39.220Z,10.40
2023-04-29T03:27:43.813Z,10.50
2023-04-29T03:30:46.924Z,10.60
2023-04-29T03:33:50.913Z,10.60
2023-04-29T03:36:54.145Z,10.60
2023-04-29T03:39:57.810Z,10.60
2023-04-29T03:43:02.580Z,10.60
2023-04-29T03:46:05.700Z,10.70
2023-04-29T03:49:08.996Z,10.70
2023-04-29T03:52:12.600Z,10.70
2023-04-29T03:55:15.702Z,10.60
2023-04-29T03:58:20.146Z,10.70
2023-04-29T04:01:23.472Z,10.70
2023-04-29T04:04:27.030Z,10.70
2023-04-29T04:07:30.311Z,10.70
2023-04-29T04:10:34.064Z,10.70
2023-04-29T04:13:38.628Z,10.80
2023-04-29T04:16:41.760Z,10.80
2023-04-29T04:19:44.895Z,10.90
2023-04-29T04:22:47.997Z,11.00
2023-04-29T04:25:53.295Z,11.00
2023-04-29T04:28:57.702Z,11.00
2023-04-29T04:32:00.792Z,11.00
2023-04-29T04:35:03.850Z,11.00
2023-04-29T04:38:07.624Z,11.00
2023-04-29T04:41:10.941Z,11.10
2023-04-29T04:44:16.881Z,11.10
2023-04-29T04:47:20.138Z,11.10
2023-04-29T04:50:23.289Z,11.10
2023-04-29T04:53:26.359Z,11.10
2023-04-29T04:56:29.697Z,11.10
2023-04-29T04:59:34.954Z,11.10
2023-04-29T05:02:38.544Z,11.20
2023-04-29T05:05:41.732Z,11.30
2023-04-29T05:08:44.742Z,11.30
2023-04-29T05:11:48.027Z,11.30
2023-04-29T05:14:55.627Z,11.30
2023-04-29T05:17:58.674Z,11.30
2023-04-29T05:21:01.911Z,11.30
2023-04-29T05:24:06.133Z,11.30
2023-04-29T05:27:09.537Z,11.30
2023-04-29T05:30:14.342Z,11.40
2023-04-29T05:33:17.335Z,11.30
2023-04-29T05:36:20.569Z,11.40
2023-04-29T05:39:23.754Z,11.40
2023-04-29T05:42:27.443Z,11.40
2023-04-29T05:45:31.789Z,11.50
2023-04-29T05:48:34.901Z,11.40
2023-04-29T05:51:37.864Z,11.50
2023-04-29T05:54:41.516Z,11.50
2023-04-29T05:57:44.823Z,11.50
2023-04-29T06:00:49.797Z,11.50
2023-04-29T06:03:52.970Z,11.50
2023-04-29T06:06:58.045Z,11.50
2023-04-29T06:10:01.163Z,11.50
2023-04-29T06:13:04.307Z,11.50
2023-04-29T06:16:09.133Z,11.50
2023-04-29T06:19:12.912Z,11.50
2023-04-29T06:22:15.911Z,11.50
2023-04-29T06:25:19.083Z,11.50
2023-04-29T06:28:22.062Z,11.60
2023-04-29T06:31:26.461Z,11.60
2023-04-29T06:34:29.698Z,11.70
2023-04-29T06:37:32.690Z,11.70
2023-04-29T06:40:35.720Z,11.70
2023-04-29T06:43:38.943Z,11.70
2023-04-29T06:46:43.409Z,11.80
2023-04-29T06:49:46.642Z,11.90
2023-04-29T06:52:49.621Z,11.90
2023-04-29T06:55:52.881Z,11.90
2023-04-29T06:58:55.789Z,11.90
2023-04-29T07:02:00.136Z,11.90
2023-04-29T07:05:03.144Z,12.00
2023-04-29T07:08:06.586Z,11.90
2023-04-29T07:11:09.777Z,11.90
2023-04-29T07:14:12.869Z,11.90
2023-04-29T07:17:17.467Z,11.90
2023-04-29T07:20:22.557Z,11.90
2023-04-29T07:23:26.299Z,11.90
2023-04-29T07:26:29.690Z,11.90
2023-04-29T07:29:32.751Z,11.90
2023-04-29T07:32:37.248Z,11.80
2023-04-29T07:35:43.090Z,11.90
2023-04-29T07:38:47.230Z,11.90
2023-04-29T07:41:50.215Z,11.90
2023-04-29T07:44:53.396Z,11.90
2023-04-29T07:47:58.090Z,11.90
2023-04-29T07:51:03.935Z,11.90
2023-04-29T07:54:07.226Z,11.90
2023-04-29T07:57:10.261Z,11.90
2023-04-29T08:00:13.965Z,11.90
2023-04-29T08:03:19.487Z,11.90
2023-04-29T08:06:22.640Z,11.90
2023-04-29T08:09:25.838Z,11.80
2023-04-29T08:12:28.781Z,11.70
2023-04-29T08:15:36.350Z,11.70
2023-04-29T08:18:41.356Z,11.70
2023-04-29T08:21:44.689Z,11.50
2023-04-29T08:24:48.591Z,11.50
2023-04-29T08:27:51.556Z,11.50
2023-04-29T08:30:55.203Z,11.50
2023-04-29T08:33:59.707Z,11.50
2023-04-29T08:37:02.744Z,11.50
2023-04-29T08:40:06.547Z,11.50
2023-04-29T08:43:10.711Z,11.50
2023-04-29T08:46:14.371Z,11.40
2023-04-29T08:49:19.243Z,11.40
2023-04-29T08:52:22.466Z,11.30
2023-04-29T08:55:27.601Z,11.30
2023-04-29T08:58:35.208Z,11.30
2023-04-29T09:01:41.931Z,11.20
2023-04-29T09:04:50.812Z,11.20
2023-04-29T09:07:54.614Z,11.20
2023-04-29T09:10:58.534Z,11.10
2023-04-29T09:14:04.477Z,11.30
2023-04-29T09:17:07.753Z,11.20
2023-04-29T09:20:29.349Z,11.20
2023-04-29T09:23:38.750Z,11.20
2023-04-29T09:26:44.290Z,11.10
2023-04-29T09:30:02.326Z,11.10
2023-04-29T09:33:07.855Z,11.10
2023-04-29T09:36:12.396Z,11.00
2023-04-29T09:39:17.753Z,11.10
2023-04-29T09:42:21.058Z,11.00
2023-04-29T09:45:37.558Z,11.10
2023-04-29T09:48:40.689Z,11.00
2023-04-29T09:51:54.791Z,11.00
2023-04-29T09:55:07.168Z,11.00
2023-04-29T09:58:10.213Z,11.00
2023-04-29T10:01:14.354Z,11.00
2023-04-29T10:04:19.280Z,10.90
2023-04-29T10:07:24.235Z,10.90
2023-04-29T10:10:30.335Z,10.90
2023-04-29T10:13:38.218Z,10.80
2023-04-29T10:16:47.797Z,10.80
2023-04-29T10:19:58.723Z,10.90
2023-04-29T10:23:05.057Z,10.80
2023-04-29T10:26:12.733Z,10.90
2023-04-29T10:29:18.306Z,10.90
2023-04-29T10:32:23.915Z,11.00
2023-04-29T10:35:27.404Z,11.10
2023-04-29T10:38:37.355Z,11.10
2023-04-29T10:41:47.955Z,11.30
2023-04-29T10:45:19.569Z,11.30
2023-04-29T10:48:24.768Z,11.30
2023-04-29T10:51:33.050Z,11.30
2023-04-29T10:54:37.529Z,11.20
2023-04-29T10:57:40.764Z,11.30
2023-04-29T11:00:43.840Z,11.30
2023-04-29T11:03:56.392Z,11.30
2023-04-29T11:07:01.093Z,11.40
2023-04-29T11:10:06.308Z,11.50
2023-04-29T11:13:22.885Z,11.70
2023-04-29T11:16:29.468Z,12.00
2023-04-29T11:19:34.101Z,12.10
2023-04-29T11:22:37.140Z,12.20
2023-04-29T11:25:41.711Z,12.20
2023-04-29T11:28:45.133Z,12.10
2023-04-29T11:31:48.541Z,12.10
2023-04-29T11:34:51.769Z,12.20
2023-04-29T11:37:55.048Z,12.30
2023-04-29T11:41:01.266Z,12.50
2023-04-29T11:44:06.374Z,12.80
2023-04-29T11:47:09.396Z,12.90
2023-04-29T11:50:13.136Z,13.10
2023-04-29T11:53:16.291Z,13.10
2023-04-29T11:56:22.992Z,13.10
2023-04-29T11:59:27.507Z,13.10
2023-04-29T12:02:32.647Z,13.30
2023-04-29T12:05:35.909Z,13.40
2023-04-29T12:08:39.117Z,13.50
2023-04-29T12:11:44.268Z,13.60
2023-04-29T12:14:47.740Z,13.60
2023-04-29T12:17:51.565Z,13.50
2023-04-29T12:20:56.004Z,13.30
2023-04-29T12:24:01.871Z,13.20
2023-04-29T12:27:09.601Z,13.10
2023-04-29T12:30:13.237Z,13.00
2023-04-29T12:33:23.788Z,12.90
2023-04-29T12:36:27.088Z,12.90
2023-04-29T12:39:31.590Z,13.00
2023-04-29T12:42:36.178Z,13.30
2023-04-29T12:45:40.787Z,13.60
2023-04-29T12:48:44.593Z,13.90
2023-04-29T12:51:48.395Z,14.00
2023-04-29T12:54:51.799Z,14.20
2023-04-29T12:57:58.046Z,14.20
2023-04-29T13:01:02.259Z,14.30
2023-04-29T13:04:06.583Z,14.40
2023-04-29T13:07:10.072Z,14.60
2023-04-29T13:10:13.821Z,14.80
2023-04-29T13:13:18.419Z,14.80
2023-04-29T13:16:22.387Z,14.90
2023-04-29T13:19:43.478Z,14.70
2023-04-29T13:22:49.483Z,14.70
2023-04-29T13:25:52.617Z,14.70
2023-04-29T13:28:57.050Z,14.90
2023-04-29T13:32:06.201Z,15.00
2023-04-29T13:35:10.179Z,15.00
2023-04-29T13:38:13.388Z,15.00
2023-04-29T13:41:17.016Z,15.00
2023-04-29T13:44:31.327Z,15.10
2023-04-29T13:48:03.001Z,15.10
2023-04-29T13:51:46.019Z,15.20
2023-04-29T14:03:49.934Z,15.50
2023-04-29T14:06:53.456Z,15.50
2023-04-29T14:09:56.421Z,15.20
2023-04-29T14:12:59.495Z,15.10
2023-04-29T14:16:06.672Z,15.00
2023-04-29T14:19:09.922Z,14.90
2023-04-29T14:22:12.902Z,14.80
2023-04-29T14:25:15.988Z,14.80
2023-04-29T14:28:19.179Z,14.80
2023-04-29T14:31:24.372Z,14.70
2023-04-29T14:34:27.487Z,14.80
2023-04-29T14:37:30.450Z,15.00
2023-04-29T14:40:33.470Z,15.10
2023-04-29T14:43:36.985Z,15.30
2023-04-29T14:46:42.172Z,15.50
2023-04-29T14:49:45.274Z,15.60
2023-04-29T14:52:48.582Z,15.60
2023-04-29T14:55:51.889Z,15.80
2023-04-29T14:58:56.013Z,15.80
2023-04-29T15:02:00.666Z,15.80
2023-04-29T15:05:04.176Z,15.80
2023-04-29T15:08:08.403Z,15.80
2023-04-29T15:11:11.464Z,15.90
2023-04-29T15:14:14.460Z,16.00
2023-04-29T15:17:18.798Z,15.90
2023-04-29T15:20:21.917Z,15.80
2023-04-29T15:23:25.794Z,15.80
2023-04-29T15:26:28.803Z,15.80
2023-04-29T15:29:32.658Z,15.80
2023-04-29T15:32:37.255Z,15.90
2023-04-29T15:35:40.481Z,15.80
2023-04-29T15:38:43.691Z,15.80
2023-04-29T15:41:46.810Z,15.70
2023-04-29T15:44:52.351Z,15.70
2023-04-29T15:47:56.774Z,15.60
2023-04-29T15:50:59.792Z,15.60
2023-04-29T15:54:02.837Z,15.50
2023-04-29T15:57:06.468Z,15.30
2023-04-29T16:00:10.608Z,15.20
2023-04-29T16:03:15.220Z,15.00
2023-04-29T16:06:18.324Z,15.00
2023-04-29T16:09:21.609Z,15.00
2023-04-29T16:12:24.594Z,15.10
2023-04-29T16:15:29.021Z,15.20
2023-04-29T16:18:33.716Z,15.30
2023-04-29T16:21:36.692Z,15.20
2023-04-29T16:24:39.643Z,15.00
2023-04-29T16:27:42.742Z,15.00
2023-04-29T16:30:45.809Z,14.90
2023-04-29T16:33:50.540Z,14.90
2023-04-29T16:36:53.775Z,14.90
2023-04-29T16:39:57.073Z,14.90
2023-04-29T16:43:00.158Z,14.90
2023-04-29T16:46:06.284Z,14.80
2023-04-29T16:49:10.749Z,14.80
2023-04-29T16:52:14.460Z,14.80
2023-04-29T16:55:17.663Z,14.90
2023-04-29T16:58:20.815Z,15.00
2023-04-29T17:01:24.160Z,15.00
2023-04-29T17:04:29.144Z,15.10
2023-04-29T17:07:33.355Z,15.20
2023-04-29T17:10:36.371Z,15.30
2023-04-29T17:13:39.396Z,15.30
2023-04-29T17:16:42.364Z,15.20
2023-04-29T17:19:50.007Z,15.10
2023-04-29T17:22:53.148Z,15.00
2023-04-29T17:25:58.425Z,14.80
2023-04-29T17:29:01.496Z,14.60
2023-04-29T17:32:10.866Z,14.50
2023-04-29T17:35:15.323Z,14.40
2023-04-29T17:38:18.338Z,14.30
2023-04-29T17:41:21.353Z,14.20
2023-04-29T17:44:24.421Z,14.20
2023-04-29T17:47:27.570Z,14.10
2023-04-29T17:50:31.982Z,14.10
2023-04-29T17:53:35.084Z,14.00
2023-04-29T17:56:38.140Z,14.00
2023-04-29T17:59:41.391Z,14.00
2023-04-29T18:02:45.510Z,13.90
2023-04-29T18:05:50.055Z,13.90
2023-04-29T18:08:53.240Z,13.90
2023-04-29T18:11:56.374Z,13.80
2023-04-29T18:14:59.458Z,13.70
2023-04-29T18:18:03.577Z,13.70
2023-04-29T18:21:08.112Z,13.60
2023-04-29T18:24:11.349Z,13.60
2023-04-29T18:27:14.546Z,13.60
2023-04-29T18:30:19.420Z,13.50
2023-04-29T18:33:23.410Z,13.50
2023-04-29T18:36:28.066Z,13.40
2023-04-29T18:39:31.289Z,13.30
2023-04-29T18:42:34.566Z,13.20
2023-04-29T18:45:38.807Z,13.20
2023-04-29T18:48:41.951Z,13.10
2023-04-29T18:51:47.581Z,13.00
2023-04-29T18:54:50.627Z,12.90
2023-04-29T18:57:53.753Z,12.80
2023-04-29T19:00:57.913Z,12.70
2023-04-29T19:04:04.392Z,12.70
2023-04-29T19:07:08.928Z,12.60
2023-04-29T19:10:12.159Z,12.50
2023-04-29T19:13:16.262Z,12.50
2023-04-29T19:16:19.564Z,12.50
2023-04-29T19:19:22.676Z,12.40
2023-04-29T19:22:27.820Z,12.30
2023-04-29T19:25:31.943Z,12.20
2023-04-29T19:28:36.433Z,12.20
2023-04-29T19:31:39.726Z,12.10
2023-04-29T19:34:42.890Z,12.10
2023-04-29T19:37:47.527Z,12.00
2023-04-29T19:40:50.799Z,11.90
2023-04-29T19:43:54.017Z,11.90
2023-04-29T19:46:57.096Z,11.90
2023-04-29T19:50:00.343Z,11.70
2023-04-29T19:53:05.393Z,11.70
2023-04-29T19:56:08.604Z,11.70
2023-04-29T19:59:13.269Z,11.70
2023-04-29T20:02:16.503Z,11.70
2023-04-29T20:05:19.930Z,11.70
2023-04-29T20:08:24.842Z,11.70
2023-04-29T20:11:28.273Z,11.80
2023-04-29T20:14:32.834Z,11.70
2023-04-29T20:17:37.485Z,11.70
2023-04-29T20:20:40.748Z,11.70
2023-04-29T20:23:45.543Z,11.70
2023-04-29T20:26:48.750Z,11.70
2023-04-29T20:29:51.889Z,11.70
2023-04-29T20:32:57.746Z,11.70
2023-04-29T20:36:06.295Z,11.70
2023-04-29T20:39:10.886Z,11.70
2023-04-29T20:42:13.981Z,11.60
2023-04-29T20:45:17.002Z,11.50
2023-04-29T20:48:20.123Z,11.50
2023-04-29T20:51:23.546Z,11.50
2023-04-29T20:54:28.044Z,11.40
2023-04-29T20:57:32.469Z,11.40
2023-04-29T21:00:35.564Z,11.40
2023-04-29T21:03:38.590Z,11.40
2023-04-29T21:06:41.708Z,11.40
2023-04-29T21:09:48.547Z,11.40
2023-04-29T21:12:55.302Z,11.30
2023-04-29T21:15:58.344Z,11.30
2023-04-29T21:19:01.684Z,11.30
2023-04-29T21:22:05.081Z,11.30
2023-04-29T21:25:10.142Z,11.10
2023-04-29T21:28:15.478Z,11.10
2023-04-29T21:31:19.881Z,11.10
2023-04-29T21:34:23.052Z,11.10
2023-04-29T21:37:26.280Z,11.10
2023-04-29T21:40:30.919Z,11.10
2023-04-29T21:43:34.649Z,11.10
2023-04-29T21:46:38.542Z,11.00
2023-04-29T21:49:41.795Z,10.90
2023-04-29T21:52:44.820Z,10.90
2023-04-29T21:55:49.577Z,10.80
2023-04-29T21:58:53.463Z,10.70
2023-04-29T22:02:00.601Z,10.70
2023-04-29T22:05:04.008Z,10.60
2023-04-29T22:08:08.361Z,10.50
2023-04-29T22:11:13.330Z,10.50
2023-04-29T22:14:16.682Z,10.40
2023-04-29T22:17:19.760Z,10.30
2023-04-29T22:20:23.109Z,10.20
2023-04-29T22:23:26.235Z,10.20
2023-04-29T22:26:31.088Z,10.10
2023-04-29T22:29:35.548Z,10.10
2023-04-29T22:32:38.629Z,10.00
2023-04-29T22:35:41.614Z,10.00
2023-04-29T22:38:44.683Z,9.90
2023-04-29T22:41:49.065Z,9.80
2023-04-29T22:44:52.110Z,9.70
2023-04-29T22:47:55.539Z,9.70
2023-04-29T22:51:00.958Z,9.60
2023-04-29T22:54:04.234Z,9.60
2023-04-29T22:57:11.298Z,9.60
2023-04-29T23:00:17.338Z,9.40
2023-04-29T23:03:20.644Z,9.40
2023-04-29T23:06:23.930Z,9.40
2023-04-29T23:09:27.125Z,9.40
2023-04-29T23:12:31.689Z,9.30
2023-04-29T23:15:34.786Z,9.20
2023-04-29T23:18:38.066Z,9.20
2023-04-29T23:21:41.125Z,9.20
2023-04-29T23:24:44.263Z,9.00
2023-04-29T23:27:48.916Z,9.00
2023-04-29T23:30:51.940Z,9.00
2023-04-29T23:33:54.943Z,8.90
2023-04-29T23:36:57.908Z,8.90
2023-04-29T23:40:01.241Z,8.90
2023-04-29T23:43:05.856Z,8.80
2023-04-29T23:46:08.957Z,8.80
2023-04-29T23:49:12.000Z,8.70
2023-04-29T23:52:15.123Z,8.60
2023-04-29T23:55:18.304Z,8.60
2023-04-29T23:58:24.162Z,8.60
